sensor_id;sensor_type;location;lat;lon;timestamp;temperature;humidity
32215;DHT22;18708;53.124;23.190;2023-07-29T00:01:59;17.30;99.90
32215;DHT22;18708;53.124;23.190;2023-07-29T00:04:25;17.30;99.90
32215;DHT22;18708;53.124;23.190;2023-07-29T00:06:50;17.30;99.90
32215;DHT22;18708;53.124;23.190;2023-07-29T00:09:16;17.30;99.90
32215;DHT22;18708;53.124;23.190;2023-07-29T00:11:41;17.30;99.90
32215;DHT22;18708;53.124;23.190;2023-07-29T00:14:07;17.20;99.90
32215;DHT22;18708;53.124;23.190;2023-07-29T00:16:32;17.10;99.90
32215;DHT22;18708;53.124;23.190;2023-07-29T00:18:58;17.10;99.90
32215;DHT22;18708;53.124;23.190;2023-07-29T00:21:23;17.10;99.90
32215;DHT22;18708;53.124;23.190;2023-07-29T00:23:49;17.00;99.90
32215;DHT22;18708;53.124;23.190;2023-07-29T00:26:14;17.00;99.90
32215;DHT22;18708;53.124;23.190;2023-07-29T00:28:40;17.00;99.90
32215;DHT22;18708;53.124;23.190;2023-07-29T00:31:06;17.00;99.90
32215;DHT22;18708;53.124;23.190;2023-07-29T00:33:31;16.90;99.90
32215;DHT22;18708;53.124;23.190;2023-07-29T00:35:57;17.00;99.90
32215;DHT22;18708;53.124;23.190;2023-07-29T00:38:27;17.00;99.90
32215;DHT22;18708;53.124;23.190;2023-07-29T00:40:52;16.90;99.90
32215;DHT22;18708;53.124;23.190;2023-07-29T00:43:18;16.90;99.90
32215;DHT22;18708;53.124;23.190;2023-07-29T00:45:43;16.90;99.90
32215;DHT22;18708;53.124;23.190;2023-07-29T00:48:09;16.90;99.90
32215;DHT22;18708;53.124;23.190;2023-07-29T00:50:35;16.90;99.90
32215;DHT22;18708;53.124;23.190;2023-07-29T00:53:00;16.80;99.90
32215;DHT22;18708;53.124;23.190;2023-07-29T00:55:26;16.80;99.90
32215;DHT22;18708;53.124;23.190;2023-07-29T00:57:52;16.70;99.90
32215;DHT22;18708;53.124;23.190;2023-07-29T01:00:20;16.80;99.90
32215;DHT22;18708;53.124;23.190;2023-07-29T01:02:45;16.80;99.90
32215;DHT22;18708;53.124;23.190;2023-07-29T01:05:11;16.70;99.90
32215;DHT22;18708;53.124;23.190;2023-07-29T01:17:59;16.60;99.90
32215;DHT22;18708;53.124;23.190;2023-07-29T01:20:29;16.50;99.90
32215;DHT22;18708;53.124;23.190;2023-07-29T01:22:57;16.50;99.90
32215;DHT22;18708;53.124;23.190;2023-07-29T01:25:23;16.40;99.90
32215;DHT22;18708;53.124;23.190;2023-07-29T01:27:49;16.50;99.90
32215;DHT22;18708;53.124;23.190;2023-07-29T01:30:17;16.50;99.90
32215;DHT22;18708;53.124;23.190;2023-07-29T01:32:57;16.40;99.90
32215;DHT22;18708;53.124;23.190;2023-07-29T01:37:55;16.50;99.90
32215;DHT22;18708;53.124;23.190;2023-07-29T01:40:26;16.50;99.90
32215;DHT22;18708;53.124;23.190;2023-07-29T01:42:52;16.50;99.90
32215;DHT22;18708;53.124;23.190;2023-07-29T01:45:18;16.40;99.90
32215;DHT22;18708;53.124;23.190;2023-07-29T01:47:43;16.40;99.90
32215;DHT22;18708;53.124;23.190;2023-07-29T01:50:09;16.40;99.90
32215;DHT22;18708;53.124;23.190;2023-07-29T01:52:35;16.30;99.90
32215;DHT22;18708;53.124;23.190;2023-07-29T01:55:01;16.30;99.90
32215;DHT22;18708;53.124;23.190;2023-07-29T01:57:27;16.30;99.90
32215;DHT22;18708;53.124;23.190;2023-07-29T01:59:52;16.30;99.90
32215;DHT22;18708;53.124;23.190;2023-07-29T02:02:18;16.30;99.90
32215;DHT22;18708;53.124;23.190;2023-07-29T02:04:43;16.20;99.90
32215;DHT22;18708;53.124;23.190;2023-07-29T02:07:10;16.10;99.90
32215;DHT22;18708;53.124;23.190;2023-07-29T02:09:36;16.10;99.90
32215;DHT22;18708;53.124;23.190;2023-07-29T02:12:01;16.00;99.90
32215;DHT22;18708;53.124;23.190;2023-07-29T02:14:28;16.00;99.90
32215;DHT22;18708;53.124;23.190;2023-07-29T02:16:53;16.00;99.90
32215;DHT22;18708;53.124;23.190;2023-07-29T02:19:19;16.00;99.90
32215;DHT22;18708;53.124;23.190;2023-07-29T02:21:44;16.00;99.90
32215;DHT22;18708;53.124;23.190;2023-07-29T02:24:10;16.00;99.90
32215;DHT22;18708;53.124;23.190;2023-07-29T02:26:35;16.00;99.90
32215;DHT22;18708;53.124;23.190;2023-07-29T02:29:01;16.00;99.90
32215;DHT22;18708;53.124;23.190;2023-07-29T02:31:26;16.00;99.90
32215;DHT22;18708;53.124;23.190;2023-07-29T02:33:52;16.00;99.90
32215;DHT22;18708;53.124;23.190;2023-07-29T02:36:18;16.00;99.90
32215;DHT22;18708;53.124;23.190;2023-07-29T02:38:43;15.90;99.90
32215;DHT22;18708;53.124;23.190;2023-07-29T02:41:09;15.90;99.90
32215;DHT22;18708;53.124;23.190;2023-07-29T02:43:37;15.90;99.90
32215;DHT22;18708;53.124;23.190;2023-07-29T02:46:03;15.80;99.90
32215;DHT22;18708;53.124;23.190;2023-07-29T02:48:28;15.90;99.90
32215;DHT22;18708;53.124;23.190;2023-07-29T02:50:54;15.80;99.90
32215;DHT22;18708;53.124;23.190;2023-07-29T02:53:20;15.80;99.90
32215;DHT22;18708;53.124;23.190;2023-07-29T02:55:45;15.80;99.90
32215;DHT22;18708;53.124;23.190;2023-07-29T02:58:11;15.80;99.90
32215;DHT22;18708;53.124;23.190;2023-07-29T03:00:36;15.70;99.90
32215;DHT22;18708;53.124;23.190;2023-07-29T03:03:02;15.80;99.90
32215;DHT22;18708;53.124;23.190;2023-07-29T03:05:27;15.80;99.90
32215;DHT22;18708;53.124;23.190;2023-07-29T03:07:53;15.80;99.90
32215;DHT22;18708;53.124;23.190;2023-07-29T03:10:19;15.80;99.90
32215;DHT22;18708;53.124;23.190;2023-07-29T03:12:44;15.80;99.90
32215;DHT22;18708;53.124;23.190;2023-07-29T03:15:10;15.80;99.90
32215;DHT22;18708;53.124;23.190;2023-07-29T03:17:35;15.80;99.90
32215;DHT22;18708;53.124;23.190;2023-07-29T03:20:01;15.70;99.90
32215;DHT22;18708;53.124;23.190;2023-07-29T03:22:26;15.80;99.90
32215;DHT22;18708;53.124;23.190;2023-07-29T03:24:52;15.70;99.90
32215;DHT22;18708;53.124;23.190;2023-07-29T03:27:17;15.80;99.90
32215;DHT22;18708;53.124;23.190;2023-07-29T03:29:43;15.80;99.90
32215;DHT22;18708;53.124;23.190;2023-07-29T03:32:09;15.80;99.90
32215;DHT22;18708;53.124;23.190;2023-07-29T03:34:34;15.80;99.90
32215;DHT22;18708;53.124;23.190;2023-07-29T03:37:00;15.80;99.90
32215;DHT22;18708;53.124;23.190;2023-07-29T03:39:26;15.80;99.90
32215;DHT22;18708;53.124;23.190;2023-07-29T03:41:52;15.80;99.90
32215;DHT22;18708;53.124;23.190;2023-07-29T03:44:17;15.80;99.90
32215;DHT22;18708;53.124;23.190;2023-07-29T03:46:44;15.80;99.90
32215;DHT22;18708;53.124;23.190;2023-07-29T03:49:09;15.70;99.90
32215;DHT22;18708;53.124;23.190;2023-07-29T03:51:35;15.80;99.90
32215;DHT22;18708;53.124;23.190;2023-07-29T03:54:00;15.70;99.90
32215;DHT22;18708;53.124;23.190;2023-07-29T03:56:26;15.70;99.90
32215;DHT22;18708;53.124;23.190;2023-07-29T03:58:52;15.70;99.90
32215;DHT22;18708;53.124;23.190;2023-07-29T04:01:17;15.60;99.90
32215;DHT22;18708;53.124;23.190;2023-07-29T04:03:44;15.60;99.90
32215;DHT22;18708;53.124;23.190;2023-07-29T04:06:09;15.60;99.90
32215;DHT22;18708;53.124;23.190;2023-07-29T04:08:35;15.60;99.90
32215;DHT22;18708;53.124;23.190;2023-07-29T04:11:00;15.60;99.90
32215;DHT22;18708;53.124;23.190;2023-07-29T04:13:26;15.60;99.90
32215;DHT22;18708;53.124;23.190;2023-07-29T04:15:51;15.70;99.90
32215;DHT22;18708;53.124;23.190;2023-07-29T04:18:17;15.70;99.90
32215;DHT22;18708;53.124;23.190;2023-07-29T04:20:42;15.70;99.90
32215;DHT22;18708;53.124;23.190;2023-07-29T04:23:08;15.70;99.90
32215;DHT22;18708;53.124;23.190;2023-07-29T04:25:34;15.70;99.90
32215;DHT22;18708;53.124;23.190;2023-07-29T04:27:59;15.80;99.90
32215;DHT22;18708;53.124;23.190;2023-07-29T04:30:25;15.80;99.90
32215;DHT22;18708;53.124;23.190;2023-07-29T04:32:50;15.70;99.90
32215;DHT22;18708;53.124;23.190;2023-07-29T04:35:16;15.80;99.90
32215;DHT22;18708;53.124;23.190;2023-07-29T04:37:42;15.80;99.90
32215;DHT22;18708;53.124;23.190;2023-07-29T04:40:07;15.60;99.90
32215;DHT22;18708;53.124;23.190;2023-07-29T04:42:33;15.80;99.90
32215;DHT22;18708;53.124;23.190;2023-07-29T04:44:58;15.80;99.90
32215;DHT22;18708;53.124;23.190;2023-07-29T04:47:24;15.80;99.90
32215;DHT22;18708;53.124;23.190;2023-07-29T04:49:49;15.90;99.90
32215;DHT22;18708;53.124;23.190;2023-07-29T04:52:15;15.80;99.90
32215;DHT22;18708;53.124;23.190;2023-07-29T04:54:40;15.80;99.90
32215;DHT22;18708;53.124;23.190;2023-07-29T04:57:06;15.80;99.90
32215;DHT22;18708;53.124;23.190;2023-07-29T04:59:32;15.80;99.90
32215;DHT22;18708;53.124;23.190;2023-07-29T05:01:57;15.80;99.90
32215;DHT22;18708;53.124;23.190;2023-07-29T05:04:23;15.90;99.90
32215;DHT22;18708;53.124;23.190;2023-07-29T05:06:48;15.90;99.90
32215;DHT22;18708;53.124;23.190;2023-07-29T05:09:14;15.90;99.90
32215;DHT22;18708;53.124;23.190;2023-07-29T05:11:41;16.00;99.90
32215;DHT22;18708;53.124;23.190;2023-07-29T05:14:06;16.00;99.90
32215;DHT22;18708;53.124;23.190;2023-07-29T05:16:32;16.10;99.90
32215;DHT22;18708;53.124;23.190;2023-07-29T05:18:58;16.10;99.90
32215;DHT22;18708;53.124;23.190;2023-07-29T05:21:23;16.10;99.90
32215;DHT22;18708;53.124;23.190;2023-07-29T05:23:49;16.10;99.90
32215;DHT22;18708;53.124;23.190;2023-07-29T05:26:14;16.10;99.90
32215;DHT22;18708;53.124;23.190;2023-07-29T05:28:40;16.10;99.90
32215;DHT22;18708;53.124;23.190;2023-07-29T05:31:05;16.10;99.90
32215;DHT22;18708;53.124;23.190;2023-07-29T05:33:31;16.10;99.90
32215;DHT22;18708;53.124;23.190;2023-07-29T05:35:56;16.10;99.90
32215;DHT22;18708;53.124;23.190;2023-07-29T05:38:22;16.10;99.90
32215;DHT22;18708;53.124;23.190;2023-07-29T05:40:48;16.10;99.90
32215;DHT22;18708;53.124;23.190;2023-07-29T05:43:13;16.20;99.90
32215;DHT22;18708;53.124;23.190;2023-07-29T05:45:40;16.20;99.90
32215;DHT22;18708;53.124;23.190;2023-07-29T05:48:05;16.20;99.90
32215;DHT22;18708;53.124;23.190;2023-07-29T05:50:31;16.20;99.90
32215;DHT22;18708;53.124;23.190;2023-07-29T05:52:56;16.20;99.90
32215;DHT22;18708;53.124;23.190;2023-07-29T05:55:22;16.30;99.90
32215;DHT22;18708;53.124;23.190;2023-07-29T05:57:47;16.30;99.90
32215;DHT22;18708;53.124;23.190;2023-07-29T06:00:13;16.20;99.90
32215;DHT22;18708;53.124;23.190;2023-07-29T06:02:39;16.20;99.90
32215;DHT22;18708;53.124;23.190;2023-07-29T06:05:06;16.30;99.90
32215;DHT22;18708;53.124;23.190;2023-07-29T06:07:31;16.30;99.90
32215;DHT22;18708;53.124;23.190;2023-07-29T06:09:59;16.40;99.90
32215;DHT22;18708;53.124;23.190;2023-07-29T06:12:24;16.40;99.90
32215;DHT22;18708;53.124;23.190;2023-07-29T06:14:50;16.40;99.90
32215;DHT22;18708;53.124;23.190;2023-07-29T06:17:15;16.40;99.90
32215;DHT22;18708;53.124;23.190;2023-07-29T06:19:41;16.40;99.90
32215;DHT22;18708;53.124;23.190;2023-07-29T06:22:07;16.40;99.90
32215;DHT22;18708;53.124;23.190;2023-07-29T06:24:32;16.40;99.90
32215;DHT22;18708;53.124;23.190;2023-07-29T06:26:58;16.40;99.90
32215;DHT22;18708;53.124;23.190;2023-07-29T06:29:23;16.40;99.90
32215;DHT22;18708;53.124;23.190;2023-07-29T06:31:49;16.30;99.90
32215;DHT22;18708;53.124;23.190;2023-07-29T06:34:17;16.30;99.90
32215;DHT22;18708;53.124;23.190;2023-07-29T06:36:42;16.40;99.90
32215;DHT22;18708;53.124;23.190;2023-07-29T06:39:08;16.50;99.90
32215;DHT22;18708;53.124;23.190;2023-07-29T06:41:33;16.60;99.90
32215;DHT22;18708;53.124;23.190;2023-07-29T06:43:59;16.70;99.90
32215;DHT22;18708;53.124;23.190;2023-07-29T06:46:24;16.80;99.90
32215;DHT22;18708;53.124;23.190;2023-07-29T06:48:51;16.90;99.90
32215;DHT22;18708;53.124;23.190;2023-07-29T06:51:16;16.90;99.90
32215;DHT22;18708;53.124;23.190;2023-07-29T06:53:42;17.00;99.90
32215;DHT22;18708;53.124;23.190;2023-07-29T06:56:07;17.00;99.90
32215;DHT22;18708;53.124;23.190;2023-07-29T06:58:33;17.10;99.90
32215;DHT22;18708;53.124;23.190;2023-07-29T07:00:59;17.40;99.90
32215;DHT22;18708;53.124;23.190;2023-07-29T07:03:24;17.60;99.90
32215;DHT22;18708;53.124;23.190;2023-07-29T07:05:58;17.80;99.90
32215;DHT22;18708;53.124;23.190;2023-07-29T07:08:24;17.70;99.90
32215;DHT22;18708;53.124;23.190;2023-07-29T07:10:49;17.90;99.90
32215;DHT22;18708;53.124;23.190;2023-07-29T07:13:15;18.50;99.90
32215;DHT22;18708;53.124;23.190;2023-07-29T07:15:40;19.00;99.90
32215;DHT22;18708;53.124;23.190;2023-07-29T07:18:08;19.20;1.00
32215;DHT22;18708;53.124;23.190;2023-07-29T07:20:34;19.00;1.00
32215;DHT22;18708;53.124;23.190;2023-07-29T07:23:00;18.80;99.90
32215;DHT22;18708;53.124;23.190;2023-07-29T07:25:25;18.50;1.00
32215;DHT22;18708;53.124;23.190;2023-07-29T07:27:51;18.50;1.00
32215;DHT22;18708;53.124;23.190;2023-07-29T07:30:17;18.70;99.90
32215;DHT22;18708;53.124;23.190;2023-07-29T07:32:42;19.40;1.00
32215;DHT22;18708;53.124;23.190;2023-07-29T07:35:10;19.80;1.00
32215;DHT22;18708;53.124;23.190;2023-07-29T07:37:36;20.10;99.90
32215;DHT22;18708;53.124;23.190;2023-07-29T07:40:01;20.50;1.00
32215;DHT22;18708;53.124;23.190;2023-07-29T07:42:27;20.60;1.00
32215;DHT22;18708;53.124;23.190;2023-07-29T07:44:52;20.90;1.00
32215;DHT22;18708;53.124;23.190;2023-07-29T07:47:18;20.90;99.90
32215;DHT22;18708;53.124;23.190;2023-07-29T07:49:43;20.60;15.80
32215;DHT22;18708;53.124;23.190;2023-07-29T07:52:09;20.50;99.90
32215;DHT22;18708;53.124;23.190;2023-07-29T07:54:34;21.10;99.90
32215;DHT22;18708;53.124;23.190;2023-07-29T07:57:00;21.00;48.90
32215;DHT22;18708;53.124;23.190;2023-07-29T07:59:25;20.80;1.00
32215;DHT22;18708;53.124;23.190;2023-07-29T08:01:51;21.00;1.00
32215;DHT22;18708;53.124;23.190;2023-07-29T08:04:17;21.00;1.00
32215;DHT22;18708;53.124;23.190;2023-07-29T08:06:43;20.90;1.00
32215;DHT22;18708;53.124;23.190;2023-07-29T08:09:08;21.20;1.00
32215;DHT22;18708;53.124;23.190;2023-07-29T08:11:34;21.30;1.00
32215;DHT22;18708;53.124;23.190;2023-07-29T08:14:02;21.20;1.00
32215;DHT22;18708;53.124;23.190;2023-07-29T08:16:27;21.50;1.00
32215;DHT22;18708;53.124;23.190;2023-07-29T08:18:53;21.20;1.00
32215;DHT22;18708;53.124;23.190;2023-07-29T08:21:18;21.80;1.00
32215;DHT22;18708;53.124;23.190;2023-07-29T08:23:44;21.50;99.90
32215;DHT22;18708;53.124;23.190;2023-07-29T08:26:10;21.00;99.90
32215;DHT22;18708;53.124;23.190;2023-07-29T08:28:36;21.00;1.00
32215;DHT22;18708;53.124;23.190;2023-07-29T08:31:02;20.80;99.90
32215;DHT22;18708;53.124;23.190;2023-07-29T08:33:28;20.90;1.00
32215;DHT22;18708;53.124;23.190;2023-07-29T08:35:53;20.90;99.90
32215;DHT22;18708;53.124;23.190;2023-07-29T08:38:19;21.80;1.00
32215;DHT22;18708;53.124;23.190;2023-07-29T08:40:48;22.10;1.00
32215;DHT22;18708;53.124;23.190;2023-07-29T08:43:15;22.20;99.90
32215;DHT22;18708;53.124;23.190;2023-07-29T08:45:41;21.90;99.90
32215;DHT22;18708;53.124;23.190;2023-07-29T08:48:08;22.60;99.90
32215;DHT22;18708;53.124;23.190;2023-07-29T08:50:35;22.90;99.90
32215;DHT22;18708;53.124;23.190;2023-07-29T08:53:02;23.10;1.00
32215;DHT22;18708;53.124;23.190;2023-07-29T08:55:28;22.50;1.00
32215;DHT22;18708;53.124;23.190;2023-07-29T08:57:55;22.40;1.00
32215;DHT22;18708;53.124;23.190;2023-07-29T09:00:21;22.60;1.00
32215;DHT22;18708;53.124;23.190;2023-07-29T09:02:47;22.30;1.00
32215;DHT22;18708;53.124;23.190;2023-07-29T09:05:12;22.00;1.00
32215;DHT22;18708;53.124;23.190;2023-07-29T09:07:38;22.60;1.00
32215;DHT22;18708;53.124;23.190;2023-07-29T09:10:08;22.50;1.00
32215;DHT22;18708;53.124;23.190;2023-07-29T09:12:33;22.70;1.00
32215;DHT22;18708;53.124;23.190;2023-07-29T09:14:59;23.60;1.00
32215;DHT22;18708;53.124;23.190;2023-07-29T09:17:24;24.40;1.00
32215;DHT22;18708;53.124;23.190;2023-07-29T09:19:50;24.40;1.00
32215;DHT22;18708;53.124;23.190;2023-07-29T09:22:17;25.20;1.00
32215;DHT22;18708;53.124;23.190;2023-07-29T09:24:43;25.30;99.90
32215;DHT22;18708;53.124;23.190;2023-07-29T09:27:09;24.90;99.90
32215;DHT22;18708;53.124;23.190;2023-07-29T09:29:35;25.10;99.90
32215;DHT22;18708;53.124;23.190;2023-07-29T09:32:20;25.40;99.90
32215;DHT22;18708;53.124;23.190;2023-07-29T09:34:45;25.50;99.90
32215;DHT22;18708;53.124;23.190;2023-07-29T09:37:20;25.90;99.90
32215;DHT22;18708;53.124;23.190;2023-07-29T09:39:49;26.30;99.90
32215;DHT22;18708;53.124;23.190;2023-07-29T09:42:21;26.50;99.90
32215;DHT22;18708;53.124;23.190;2023-07-29T09:44:48;26.00;99.90
32215;DHT22;18708;53.124;23.190;2023-07-29T09:47:20;25.40;99.90
32215;DHT22;18708;53.124;23.190;2023-07-29T09:49:46;24.80;99.90
32215;DHT22;18708;53.124;23.190;2023-07-29T09:52:14;25.10;99.90
32215;DHT22;18708;53.124;23.190;2023-07-29T09:54:39;25.60;99.90
32215;DHT22;18708;53.124;23.190;2023-07-29T09:57:06;26.10;99.90
32215;DHT22;18708;53.124;23.190;2023-07-29T09:59:35;25.80;99.90
32215;DHT22;18708;53.124;23.190;2023-07-29T10:02:01;26.30;99.90
32215;DHT22;18708;53.124;23.190;2023-07-29T10:04:27;26.40;99.90
32215;DHT22;18708;53.124;23.190;2023-07-29T10:06:54;27.30;99.90
32215;DHT22;18708;53.124;23.190;2023-07-29T10:09:20;26.70;99.90
32215;DHT22;18708;53.124;23.190;2023-07-29T10:11:46;26.30;99.90
32215;DHT22;18708;53.124;23.190;2023-07-29T10:14:11;26.10;99.90
32215;DHT22;18708;53.124;23.190;2023-07-29T10:16:37;26.30;99.90
32215;DHT22;18708;53.124;23.190;2023-07-29T10:19:04;26.80;99.90
32215;DHT22;18708;53.124;23.190;2023-07-29T10:21:31;26.40;99.90
32215;DHT22;18708;53.124;23.190;2023-07-29T10:23:58;26.00;99.90
32215;DHT22;18708;53.124;23.190;2023-07-29T10:26:26;26.10;99.90
32215;DHT22;18708;53.124;23.190;2023-07-29T10:28:53;26.40;99.90
32215;DHT22;18708;53.124;23.190;2023-07-29T10:31:20;26.90;99.90
32215;DHT22;18708;53.124;23.190;2023-07-29T10:33:46;26.50;99.90
32215;DHT22;18708;53.124;23.190;2023-07-29T10:36:11;26.00;99.90
32215;DHT22;18708;53.124;23.190;2023-07-29T10:38:37;26.50;99.90
32215;DHT22;18708;53.124;23.190;2023-07-29T10:41:03;26.20;99.90
32215;DHT22;18708;53.124;23.190;2023-07-29T10:43:32;25.70;99.90
32215;DHT22;18708;53.124;23.190;2023-07-29T10:46:06;25.80;99.90
32215;DHT22;18708;53.124;23.190;2023-07-29T10:48:41;26.40;99.90
32215;DHT22;18708;53.124;23.190;2023-07-29T10:53:48;26.60;99.90
32215;DHT22;18708;53.124;23.190;2023-07-29T10:56:13;27.00;99.90
32215;DHT22;18708;53.124;23.190;2023-07-29T10:58:49;27.10;99.90
32215;DHT22;18708;53.124;23.190;2023-07-29T11:01:25;26.70;99.90
32215;DHT22;18708;53.124;23.190;2023-07-29T11:04:01;25.80;99.90
32215;DHT22;18708;53.124;23.190;2023-07-29T11:06:27;25.90;99.90
32215;DHT22;18708;53.124;23.190;2023-07-29T11:08:52;26.10;99.90
32215;DHT22;18708;53.124;23.190;2023-07-29T11:11:18;26.30;99.90
32215;DHT22;18708;53.124;23.190;2023-07-29T11:13:43;27.50;95.10
32215;DHT22;18708;53.124;23.190;2023-07-29T11:16:09;27.50;55.40
32215;DHT22;18708;53.124;23.190;2023-07-29T11:18:35;28.00;94.40
32215;DHT22;18708;53.124;23.190;2023-07-29T11:21:02;28.40;91.70
32215;DHT22;18708;53.124;23.190;2023-07-29T11:23:31;29.00;97.30
32215;DHT22;18708;53.124;23.190;2023-07-29T11:25:57;29.00;83.60
32215;DHT22;18708;53.124;23.190;2023-07-29T11:28:23;28.80;67.60
32215;DHT22;18708;53.124;23.190;2023-07-29T11:30:49;28.40;42.50
32215;DHT22;18708;53.124;23.190;2023-07-29T11:33:17;28.90;67.70
32215;DHT22;18708;53.124;23.190;2023-07-29T11:35:42;28.50;61.40
32215;DHT22;18708;53.124;23.190;2023-07-29T11:38:14;28.70;90.30
32215;DHT22;18708;53.124;23.190;2023-07-29T11:40:39;28.80;90.30
32215;DHT22;18708;53.124;23.190;2023-07-29T11:43:05;28.90;87.10
32215;DHT22;18708;53.124;23.190;2023-07-29T11:45:30;29.00;73.20
32215;DHT22;18708;53.124;23.190;2023-07-29T11:47:56;29.70;67.40
32215;DHT22;18708;53.124;23.190;2023-07-29T11:50:22;29.60;41.60
32215;DHT22;18708;53.124;23.190;2023-07-29T11:52:47;29.50;39.60
32215;DHT22;18708;53.124;23.190;2023-07-29T11:55:14;29.50;29.10
32215;DHT22;18708;53.124;23.190;2023-07-29T11:57:39;29.50;19.40
32215;DHT22;18708;53.124;23.190;2023-07-29T12:00:07;29.70;36.70
32215;DHT22;18708;53.124;23.190;2023-07-29T12:02:33;30.10;47.60
32215;DHT22;18708;53.124;23.190;2023-07-29T12:05:00;29.90;52.10
32215;DHT22;18708;53.124;23.190;2023-07-29T12:07:26;29.50;32.20
32215;DHT22;18708;53.124;23.190;2023-07-29T12:09:52;29.70;75.40
32215;DHT22;18708;53.124;23.190;2023-07-29T12:12:17;29.40;43.50
32215;DHT22;18708;53.124;23.190;2023-07-29T12:14:44;29.40;36.10
32215;DHT22;18708;53.124;23.190;2023-07-29T12:17:11;29.30;40.40
32215;DHT22;18708;53.124;23.190;2023-07-29T12:19:37;29.20;29.70
32215;DHT22;18708;53.124;23.190;2023-07-29T12:22:03;29.50;31.40
32215;DHT22;18708;53.124;23.190;2023-07-29T12:24:29;29.40;34.30
32215;DHT22;18708;53.124;23.190;2023-07-29T12:26:55;29.70;29.30
32215;DHT22;18708;53.124;23.190;2023-07-29T12:29:20;29.30;26.90
32215;DHT22;18708;53.124;23.190;2023-07-29T12:31:46;29.70;33.40
32215;DHT22;18708;53.124;23.190;2023-07-29T12:34:21;29.10;17.00
32215;DHT22;18708;53.124;23.190;2023-07-29T12:36:50;29.60;7.50
32215;DHT22;18708;53.124;23.190;2023-07-29T12:39:20;30.00;1.00
32215;DHT22;18708;53.124;23.190;2023-07-29T12:41:46;29.10;1.00
32215;DHT22;18708;53.124;23.190;2023-07-29T12:44:12;28.70;1.00
32215;DHT22;18708;53.124;23.190;2023-07-29T12:46:38;28.50;1.00
32215;DHT22;18708;53.124;23.190;2023-07-29T12:49:03;28.60;1.00
32215;DHT22;18708;53.124;23.190;2023-07-29T12:51:29;29.00;1.00
32215;DHT22;18708;53.124;23.190;2023-07-29T12:53:54;29.10;1.00
32215;DHT22;18708;53.124;23.190;2023-07-29T12:56:20;28.70;1.00
32215;DHT22;18708;53.124;23.190;2023-07-29T12:58:45;28.40;1.00
32215;DHT22;18708;53.124;23.190;2023-07-29T13:01:11;28.50;1.00
32215;DHT22;18708;53.124;23.190;2023-07-29T13:03:43;28.70;1.00
32215;DHT22;18708;53.124;23.190;2023-07-29T13:06:08;28.30;1.00
32215;DHT22;18708;53.124;23.190;2023-07-29T13:08:34;28.70;1.00
32215;DHT22;18708;53.124;23.190;2023-07-29T13:10:59;28.40;1.00
32215;DHT22;18708;53.124;23.190;2023-07-29T13:13:25;28.90;1.00
32215;DHT22;18708;53.124;23.190;2023-07-29T13:15:50;29.20;1.00
32215;DHT22;18708;53.124;23.190;2023-07-29T13:18:16;29.40;1.00
32215;DHT22;18708;53.124;23.190;2023-07-29T13:20:42;29.00;1.00
32215;DHT22;18708;53.124;23.190;2023-07-29T13:23:07;28.70;1.00
32215;DHT22;18708;53.124;23.190;2023-07-29T13:25:33;28.10;1.00
32215;DHT22;18708;53.124;23.190;2023-07-29T13:27:58;27.80;1.00
32215;DHT22;18708;53.124;23.190;2023-07-29T13:30:24;28.20;1.00
32215;DHT22;18708;53.124;23.190;2023-07-29T13:32:49;27.80;1.00
32215;DHT22;18708;53.124;23.190;2023-07-29T13:35:17;27.70;1.00
32215;DHT22;18708;53.124;23.190;2023-07-29T13:37:43;27.90;1.00
32215;DHT22;18708;53.124;23.190;2023-07-29T13:40:08;28.20;1.00
32215;DHT22;18708;53.124;23.190;2023-07-29T13:42:34;28.20;1.00
32215;DHT22;18708;53.124;23.190;2023-07-29T13:45:00;27.80;1.00
32215;DHT22;18708;53.124;23.190;2023-07-29T13:47:25;27.70;1.00
32215;DHT22;18708;53.124;23.190;2023-07-29T13:49:51;27.30;1.00
32215;DHT22;18708;53.124;23.190;2023-07-29T13:52:16;26.90;1.00
32215;DHT22;18708;53.124;23.190;2023-07-29T13:54:42;26.80;1.00
32215;DHT22;18708;53.124;23.190;2023-07-29T13:57:08;26.10;1.00
32215;DHT22;18708;53.124;23.190;2023-07-29T13:59:35;26.30;1.00
32215;DHT22;18708;53.124;23.190;2023-07-29T14:02:06;26.60;1.00
32215;DHT22;18708;53.124;23.190;2023-07-29T14:04:32;26.80;1.00
32215;DHT22;18708;53.124;23.190;2023-07-29T14:06:57;26.80;1.00
32215;DHT22;18708;53.124;23.190;2023-07-29T14:09:23;26.60;1.00
32215;DHT22;18708;53.124;23.190;2023-07-29T14:11:48;26.60;1.00
32215;DHT22;18708;53.124;23.190;2023-07-29T14:14:14;26.70;1.00
32215;DHT22;18708;53.124;23.190;2023-07-29T14:16:42;26.60;1.00
32215;DHT22;18708;53.124;23.190;2023-07-29T14:19:07;26.50;1.00
32215;DHT22;18708;53.124;23.190;2023-07-29T14:21:33;26.60;1.00
32215;DHT22;18708;53.124;23.190;2023-07-29T14:23:58;26.10;1.00
32215;DHT22;18708;53.124;23.190;2023-07-29T14:26:24;25.80;1.00
32215;DHT22;18708;53.124;23.190;2023-07-29T14:28:52;25.90;1.00
32215;DHT22;18708;53.124;23.190;2023-07-29T14:31:17;25.90;1.00
32215;DHT22;18708;53.124;23.190;2023-07-29T14:33:43;25.90;1.00
32215;DHT22;18708;53.124;23.190;2023-07-29T14:36:11;25.90;1.00
32215;DHT22;18708;53.124;23.190;2023-07-29T14:38:37;26.00;1.00
32215;DHT22;18708;53.124;23.190;2023-07-29T14:41:03;25.90;1.00
32215;DHT22;18708;53.124;23.190;2023-07-29T14:43:30;25.80;1.00
32215;DHT22;18708;53.124;23.190;2023-07-29T14:45:55;25.50;1.00
32215;DHT22;18708;53.124;23.190;2023-07-29T14:48:21;25.30;1.00
32215;DHT22;18708;53.124;23.190;2023-07-29T14:50:47;25.20;1.00
32215;DHT22;18708;53.124;23.190;2023-07-29T14:53:12;25.20;1.00
32215;DHT22;18708;53.124;23.190;2023-07-29T14:55:38;25.00;1.00
32215;DHT22;18708;53.124;23.190;2023-07-29T14:58:04;24.80;1.00
32215;DHT22;18708;53.124;23.190;2023-07-29T15:00:29;24.90;1.00
32215;DHT22;18708;53.124;23.190;2023-07-29T15:02:55;24.70;1.00
32215;DHT22;18708;53.124;23.190;2023-07-29T15:05:20;24.50;1.00
32215;DHT22;18708;53.124;23.190;2023-07-29T15:07:46;24.70;1.00
32215;DHT22;18708;53.124;23.190;2023-07-29T15:10:14;24.70;1.00
32215;DHT22;18708;53.124;23.190;2023-07-29T15:12:40;24.80;1.00
32215;DHT22;18708;53.124;23.190;2023-07-29T15:15:05;24.80;1.00
32215;DHT22;18708;53.124;23.190;2023-07-29T15:17:33;24.60;1.00
32215;DHT22;18708;53.124;23.190;2023-07-29T15:19:59;24.70;1.00
32215;DHT22;18708;53.124;23.190;2023-07-29T15:22:24;24.50;1.00
32215;DHT22;18708;53.124;23.190;2023-07-29T15:24:50;24.40;1.00
32215;DHT22;18708;53.124;23.190;2023-07-29T15:27:15;24.20;1.00
32215;DHT22;18708;53.124;23.190;2023-07-29T15:29:41;24.00;1.00